createdAt,value
2018-02-10T00:01:33.226Z,0
2018-02-10T00:02:32.936Z,0
2018-02-10T00:03:32.283Z,0
2018-02-10T00:04:33.571Z,0
2018-02-10T00:05:32.400Z,0
2018-02-10T00:06:33.457Z,0
2018-02-10T00:07:32.968Z,0
2018-02-10T00:08:33.610Z,0
2018-02-10T00:09:33.638Z,0
2018-02-10T00:10:33.987Z,0
2018-02-10T00:11:34.422Z,0
2018-02-10T00:12:34.754Z,0
2018-02-10T00:13:34.073Z,0
2018-02-10T00:14:34.606Z,0
2018-02-10T00:15:34.480Z,0
2018-02-10T00:16:34.649Z,0
2018-02-10T00:17:35.592Z,0
2018-02-10T00:18:35.836Z,0
2018-02-10T00:19:36.079Z,0
2018-02-10T00:20:35.479Z,0
2018-02-10T00:21:35.019Z,0
2018-02-10T00:22:35.152Z,0
2018-02-10T00:23:34.818Z,0
2018-02-10T00:24:35.338Z,0
2018-02-10T00:25:36.476Z,0
2018-02-10T00:26:36.059Z,0
2018-02-10T00:27:35.865Z,0
2018-02-10T00:28:35.137Z,0
2018-02-10T00:29:36.566Z,0
2018-02-10T00:30:36.971Z,0
2018-02-10T00:31:36.437Z,0
2018-02-10T00:32:35.549Z,0
2018-02-10T00:33:35.848Z,0
2018-02-10T00:34:35.281Z,0
2018-02-10T00:35:35.485Z,0
2018-02-10T00:36:36.056Z,0
2018-02-10T00:37:35.263Z,0
2018-02-10T00:38:35.948Z,0
2018-02-10T00:39:37.198Z,0
2018-02-10T00:40:36.361Z,0
2018-02-10T00:41:36.768Z,0
2018-02-10T00:42:35.445Z,0
2018-02-10T00:43:35.627Z,0
2018-02-10T00:44:35.788Z,0
2018-02-10T00:45:36.221Z,0
2018-02-10T00:46:35.628Z,0
2018-02-10T00:47:35.669Z,0
2018-02-10T00:48:35.861Z,0
2018-02-10T00:49:36.188Z,0
2018-02-10T00:50:35.812Z,0
2018-02-10T00:51:36.441Z,0
2018-02-10T00:52:35.838Z,0
2018-02-10T00:53:36.213Z,0
2018-02-10T00:54:36.389Z,0
2018-02-10T00:55:36.623Z,0
2018-02-10T00:56:37.022Z,0
2018-02-10T00:57:36.944Z,0
2018-02-10T00:58:37.487Z,0
2018-02-10T00:59:36.911Z,0
2018-02-10T01:00:36.715Z,0
2018-02-10T01:01:36.694Z,0
2018-02-10T01:02:37.685Z,0
2018-02-10T01:03:37.072Z,0
2018-02-10T01:04:37.240Z,0
2018-02-10T01:05:37.557Z,0
2018-02-10T01:06:36.870Z,0
2018-02-10T01:07:37.277Z,0
2018-02-10T01:08:37.801Z,0
2018-02-10T01:09:38.909Z,0
2018-02-10T01:10:38.546Z,0
2018-02-10T01:11:39.156Z,0
2018-02-10T01:12:39.043Z,0
2018-02-10T01:13:39.673Z,0
2018-02-10T01:14:40.466Z,0
2018-02-10T01:15:39.339Z,0
2018-02-10T01:16:39.850Z,0
2018-02-10T01:17:40.027Z,0
2018-02-10T01:18:41.040Z,0
2018-02-10T01:19:40.086Z,0
2018-02-10T01:20:41.410Z,0
2018-02-10T01:21:40.701Z,0
2018-02-10T01:22:40.951Z,0
2018-02-10T01:23:40.458Z,0
2018-02-10T01:24:41.261Z,0
2018-02-10T01:25:42.164Z,0
2018-02-10T01:26:41.703Z,0
2018-02-10T01:27:41.976Z,0
2018-02-10T01:28:42.049Z,0
2018-02-10T01:29:42.472Z,0
2018-02-10T01:30:42.806Z,0
2018-02-10T01:31:43.887Z,0
2018-02-10T01:32:42.510Z,0
2018-02-10T01:33:42.881Z,0
2018-02-10T01:34:43.777Z,0
2018-02-10T01:35:44.235Z,0
2018-02-10T01:36:43.638Z,0
2018-02-10T01:37:44.500Z,0
2018-02-10T01:38:44.774Z,0
2018-02-10T01:39:44.983Z,0
2018-02-10T01:40:45.299Z,0
2018-02-10T01:41:45.329Z,0
2018-02-10T01:42:45.940Z,0
2018-02-10T01:43:44.943Z,0
2018-02-10T01:44:44.896Z,0
2018-02-10T01:45:44.198Z,0
2018-02-10T01:46:44.297Z,0
2018-02-10T01:47:44.805Z,0
2018-02-10T01:48:45.953Z,0
2018-02-10T01:49:45.347Z,0
2018-02-10T01:50:45.630Z,0
2018-02-10T01:51:44.944Z,0
2018-02-10T01:52:45.149Z,0
2018-02-10T01:53:44.793Z,0
2018-02-10T01:54:45.348Z,0
2018-02-10T01:55:45.541Z,0
2018-02-10T01:56:46.310Z,0
2018-02-10T01:57:46.623Z,0
2018-02-10T01:58:46.876Z,0
2018-02-10T01:59:46.046Z,0
2018-02-10T02:00:46.352Z,0
2018-02-10T02:01:46.256Z,0
2018-02-10T02:02:45.760Z,0
2018-02-10T02:03:46.011Z,0
2018-02-10T02:04:46.089Z,0
2018-02-10T02:05:45.932Z,0
2018-02-10T02:06:45.504Z,0
2018-02-10T02:07:45.750Z,0
2018-02-10T02:08:46.268Z,0
2018-02-10T02:09:45.795Z,0
2018-02-10T02:10:45.808Z,0
2018-02-10T02:11:46.605Z,0
2018-02-10T02:12:45.596Z,0
2018-02-10T02:13:46.493Z,0
2018-02-10T02:14:46.445Z,0
2018-02-10T02:15:45.990Z,0
2018-02-10T02:16:45.890Z,0
2018-02-10T02:17:46.729Z,0
2018-02-10T02:18:45.767Z,0
2018-02-10T02:19:47.706Z,0
2018-02-10T02:20:46.967Z,0
2018-02-10T02:21:46.095Z,0
2018-02-10T02:22:46.110Z,0
2018-02-10T02:23:46.439Z,0
2018-02-10T02:24:47.224Z,0
2018-02-10T02:25:47.642Z,0
2018-02-10T02:26:47.897Z,0
2018-02-10T02:27:47.938Z,0
2018-02-10T02:28:47.763Z,0
2018-02-10T02:29:47.649Z,0
2018-02-10T02:30:47.933Z,0
2018-02-10T02:31:48.102Z,0
2018-02-10T02:32:49.419Z,0
2018-02-10T02:33:48.863Z,0
2018-02-10T02:34:48.943Z,0
2018-02-10T02:35:48.202Z,0
2018-02-10T02:36:49.184Z,0
2018-02-10T02:37:49.036Z,0
2018-02-10T02:38:49.000Z,0
2018-02-10T02:39:49.084Z,0
2018-02-10T02:40:48.409Z,0
2018-02-10T02:41:48.786Z,0
2018-02-10T02:42:49.280Z,0
2018-02-10T02:43:51.064Z,0
2018-02-10T02:44:51.406Z,0
2018-02-10T02:45:50.040Z,0
2018-02-10T02:46:50.279Z,0
2018-02-10T02:47:50.284Z,0
2018-02-10T02:48:50.583Z,0
2018-02-10T02:49:51.637Z,0
2018-02-10T02:50:52.519Z,0
2018-02-10T02:51:51.618Z,0
2018-02-10T02:52:52.188Z,0
2018-02-10T02:53:51.943Z,0
2018-02-10T02:54:52.492Z,0
2018-02-10T02:55:52.303Z,0
2018-02-10T02:56:51.599Z,0
2018-02-10T02:57:52.256Z,0
2018-02-10T02:58:51.578Z,0
2018-02-10T02:59:50.827Z,0
2018-02-10T03:00:51.810Z,0
2018-02-10T03:01:52.034Z,0
2018-02-10T03:02:49.992Z,0
2018-02-10T03:03:50.644Z,0
2018-02-10T03:04:50.650Z,0
2018-02-10T03:05:50.504Z,0
2018-02-10T03:06:50.747Z,0
2018-02-10T03:07:51.015Z,0
2018-02-10T03:08:51.120Z,0
2018-02-10T03:09:51.409Z,0
2018-02-10T03:10:51.622Z,0
2018-02-10T03:11:52.546Z,0
2018-02-10T03:12:51.600Z,0
2018-02-10T03:13:53.816Z,0
2018-02-10T03:14:52.108Z,0
2018-02-10T03:15:52.697Z,0
2018-02-10T03:16:52.388Z,0
2018-02-10T03:17:52.381Z,0
2018-02-10T03:18:52.884Z,0
2018-02-10T03:19:52.371Z,0
2018-02-10T03:20:52.416Z,0
2018-02-10T03:21:52.578Z,0
2018-02-10T03:22:52.429Z,0
2018-02-10T03:23:52.245Z,0
2018-02-10T03:24:52.835Z,0
2018-02-10T03:25:52.637Z,0
2018-02-10T03:26:52.869Z,0
2018-02-10T03:27:53.398Z,0
2018-02-10T03:28:54.339Z,0
2018-02-10T03:29:53.990Z,0
2018-02-10T03:30:53.423Z,0
2018-02-10T03:31:54.159Z,0
2018-02-10T03:32:53.365Z,0
2018-02-10T03:33:54.567Z,0
2018-02-10T03:34:54.220Z,0
2018-02-10T03:35:54.373Z,0
2018-02-10T03:36:53.753Z,0
2018-02-10T03:37:54.711Z,0
2018-02-10T03:38:54.169Z,0
2018-02-10T03:39:53.949Z,0
2018-02-10T03:40:55.159Z,0
2018-02-10T03:41:54.930Z,0
2018-02-10T03:42:54.582Z,0
2018-02-10T03:43:55.465Z,0
2018-02-10T03:44:55.500Z,0
2018-02-10T03:45:55.360Z,0
2018-02-10T03:46:56.357Z,0
2018-02-10T03:47:55.965Z,0
2018-02-10T03:48:56.471Z,0
2018-02-10T03:49:54.985Z,0
2018-02-10T03:50:55.404Z,0
2018-02-10T03:51:55.845Z,0
2018-02-10T03:52:56.534Z,0
2018-02-10T03:53:56.378Z,0
2018-02-10T03:54:57.100Z,0
2018-02-10T03:55:57.518Z,0
2018-02-10T03:56:56.698Z,0
2018-02-10T03:57:57.123Z,0
2018-02-10T03:58:57.320Z,0
2018-02-10T03:59:57.264Z,0
2018-02-10T04:00:57.259Z,0
2018-02-10T04:01:57.269Z,0
2018-02-10T04:02:58.187Z,0
2018-02-10T04:03:57.325Z,0
2018-02-10T04:04:58.310Z,0
2018-02-10T04:05:57.841Z,0
2018-02-10T04:06:58.325Z,0
2018-02-10T04:07:58.557Z,0
2018-02-10T04:08:58.973Z,0
2018-02-10T04:09:58.732Z,0
2018-02-10T04:10:59.664Z,0
2018-02-10T04:11:59.578Z,0
2018-02-10T04:13:00.236Z,0
2018-02-10T04:14:00.754Z,0
2018-02-10T04:15:00.856Z,0
2018-02-10T04:15:59.020Z,0
2018-02-10T04:16:59.646Z,0
2018-02-10T04:18:01.494Z,0
2018-02-10T04:19:00.252Z,0
2018-02-10T04:20:00.852Z,0
2018-02-10T04:21:00.690Z,0
2018-02-10T04:22:01.126Z,0
2018-02-10T04:23:00.678Z,0
2018-02-10T04:24:00.647Z,0
2018-02-10T04:25:00.725Z,0
2018-02-10T04:25:59.786Z,0
2018-02-10T04:27:01.503Z,0
2018-02-10T04:28:00.918Z,0
2018-02-10T04:29:00.601Z,0
2018-02-10T04:30:02.012Z,0
2018-02-10T04:31:02.113Z,0
2018-02-10T04:32:01.621Z,0
2018-02-10T04:33:00.908Z,0
2018-02-10T04:34:01.072Z,0
2018-02-10T04:35:01.399Z,0
2018-02-10T04:36:00.777Z,0
2018-02-10T04:37:01.979Z,0
2018-02-10T04:38:00.619Z,0
2018-02-10T04:39:01.109Z,0
2018-02-10T04:40:00.958Z,0
2018-02-10T04:41:01.459Z,0
2018-02-10T04:42:00.163Z,0
2018-02-10T04:43:01.949Z,0
2018-02-10T04:44:02.211Z,0
2018-02-10T04:45:00.902Z,0
2018-02-10T04:46:00.837Z,0
2018-02-10T04:47:00.602Z,0
2018-02-10T04:48:01.076Z,0
2018-02-10T04:49:01.349Z,0
2018-02-10T04:50:01.035Z,0
2018-02-10T04:51:01.114Z,0
2018-02-10T04:52:01.412Z,0
2018-02-10T04:53:00.974Z,0
2018-02-10T04:54:01.445Z,0
2018-02-10T04:55:01.509Z,0
2018-02-10T04:56:01.167Z,0
2018-02-10T04:57:01.450Z,0
2018-02-10T04:58:01.176Z,0
2018-02-10T04:59:01.470Z,0
2018-02-10T05:01:01.197Z,0
2018-02-10T05:02:01.576Z,0
2018-02-10T05:03:01.534Z,0
2018-02-10T05:04:01.576Z,0
2018-02-10T05:05:01.955Z,0
2018-02-10T05:06:01.894Z,0
2018-02-10T05:07:01.600Z,0
2018-02-10T05:08:02.089Z,0
2018-02-10T05:09:01.823Z,0
2018-02-10T05:10:01.860Z,0
2018-02-10T05:11:02.670Z,0
2018-02-10T05:12:02.530Z,0
2018-02-10T05:13:02.656Z,0
2018-02-10T05:14:02.717Z,0
2018-02-10T05:15:02.508Z,0
2018-02-10T05:16:02.679Z,0
2018-02-10T05:17:03.104Z,0
2018-02-10T05:18:01.676Z,0
2018-02-10T05:19:02.537Z,0
2018-02-10T05:20:02.578Z,0
2018-02-10T05:21:02.778Z,0
2018-02-10T05:22:02.859Z,0
2018-02-10T05:23:03.152Z,0
2018-02-10T05:24:03.372Z,0
2018-02-10T05:25:03.597Z,0
2018-02-10T05:26:03.333Z,0
2018-02-10T05:27:03.147Z,0
2018-02-10T05:28:03.385Z,0
2018-02-10T05:29:03.644Z,0
2018-02-10T05:30:03.872Z,0
2018-02-10T05:31:03.603Z,0
2018-02-10T05:32:04.329Z,0
2018-02-10T05:33:04.365Z,0
2018-02-10T05:34:04.366Z,0
2018-02-10T05:35:05.094Z,0
2018-02-10T05:36:04.355Z,0
2018-02-10T05:37:05.265Z,0
2018-02-10T05:38:04.857Z,0
2018-02-10T05:39:04.458Z,0
2018-02-10T05:40:04.822Z,0
2018-02-10T05:41:05.186Z,0
2018-02-10T05:42:04.420Z,0
2018-02-10T05:43:04.712Z,0
2018-02-10T05:44:04.618Z,0
2018-02-10T05:45:05.059Z,0
2018-02-10T05:46:05.900Z,0
2018-02-10T05:47:05.955Z,0
2018-02-10T05:48:06.094Z,0
2018-02-10T05:49:05.935Z,0
2018-02-10T05:50:06.218Z,0
2018-02-10T05:51:06.481Z,0
2018-02-10T05:52:06.506Z,0
2018-02-10T05:53:05.454Z,0
2018-02-10T05:54:05.430Z,0
2018-02-10T05:55:05.914Z,0
2018-02-10T05:56:06.404Z,0
2018-02-10T05:57:06.583Z,0
2018-02-10T05:58:07.162Z,0
2018-02-10T05:59:06.540Z,0
2018-02-10T06:01:06.888Z,0
2018-02-10T06:02:07.057Z,0
2018-02-10T06:03:07.510Z,0
2018-02-10T06:04:08.093Z,0
2018-02-10T06:05:08.588Z,0
2018-02-10T06:06:08.028Z,0
2018-02-10T06:07:08.877Z,0
2018-02-10T06:08:08.623Z,0
2018-02-10T06:09:08.514Z,0
2018-02-10T06:10:09.058Z,0
2018-02-10T06:11:09.341Z,0
2018-02-10T06:12:09.106Z,0
2018-02-10T06:13:09.889Z,0
2018-02-10T06:14:09.102Z,0
2018-02-10T06:15:09.670Z,0
2018-02-10T06:16:09.639Z,0
2018-02-10T06:17:09.786Z,0
2018-02-10T06:18:09.995Z,0
2018-02-10T06:19:09.504Z,0
2018-02-10T06:20:10.338Z,0
2018-02-10T06:21:10.041Z,0
2018-02-10T06:22:09.549Z,0
2018-02-10T06:23:09.852Z,0
2018-02-10T06:24:10.197Z,0
2018-02-10T06:25:10.021Z,0
2018-02-10T06:26:09.378Z,0
2018-02-10T06:27:09.647Z,0
2018-02-10T06:28:09.961Z,0
2018-02-10T06:29:09.662Z,0
2018-02-10T06:30:10.151Z,0
2018-02-10T06:31:10.016Z,0
2018-02-10T06:32:09.819Z,0
2018-02-10T06:33:10.129Z,0
2018-02-10T06:34:09.627Z,0
2018-02-10T06:35:10.172Z,0
2018-02-10T06:36:10.415Z,0
2018-02-10T06:37:09.897Z,0
2018-02-10T06:38:10.507Z,0
2018-02-10T06:39:10.748Z,0
2018-02-10T06:40:10.522Z,0
2018-02-10T06:41:10.515Z,0
2018-02-10T06:42:10.787Z,0
2018-02-10T06:43:11.149Z,0
2018-02-10T06:44:10.717Z,0
2018-02-10T06:45:11.257Z,0
2018-02-10T06:46:11.949Z,0
2018-02-10T06:47:11.643Z,0
2018-02-10T06:48:12.830Z,0
2018-02-10T06:49:12.560Z,0
2018-02-10T06:50:12.207Z,0
2018-02-10T06:51:13.202Z,0
2018-02-10T06:52:12.287Z,0
2018-02-10T06:53:12.517Z,5
2018-02-10T06:54:12.545Z,5
2018-02-10T06:55:12.811Z,5
2018-02-10T06:56:13.065Z,5
2018-02-10T06:57:13.520Z,5
2018-02-10T06:58:13.760Z,5
2018-02-10T06:59:14.214Z,5
2018-02-10T07:00:13.589Z,5
2018-02-10T07:01:14.998Z,5
2018-02-10T07:02:15.016Z,5
2018-02-10T07:03:14.852Z,5
2018-02-10T07:04:14.704Z,5
2018-02-10T07:05:15.321Z,5
2018-02-10T07:06:15.202Z,5
2018-02-10T07:07:15.124Z,5
2018-02-10T07:08:15.376Z,5
2018-02-10T07:09:15.905Z,5
2018-02-10T07:10:15.927Z,5
2018-02-10T07:11:15.411Z,10
2018-02-10T07:12:15.690Z,10
2018-02-10T07:13:15.978Z,10
2018-02-10T07:14:15.134Z,10
2018-02-10T07:15:16.268Z,10
2018-02-10T07:16:16.066Z,10
2018-02-10T07:17:15.655Z,10
2018-02-10T07:18:15.993Z,10
2018-02-10T07:19:15.992Z,10
2018-02-10T07:20:16.401Z,10
2018-02-10T07:21:16.550Z,10
2018-02-10T07:22:16.984Z,10
2018-02-10T07:23:17.212Z,10
2018-02-10T07:24:16.800Z,10
2018-02-10T07:25:16.970Z,10
2018-02-10T07:26:16.797Z,15
2018-02-10T07:27:17.485Z,15
2018-02-10T07:28:17.328Z,15
2018-02-10T07:29:17.906Z,10
2018-02-10T07:30:17.672Z,10
2018-02-10T07:31:17.707Z,10
2018-02-10T07:32:17.705Z,10
2018-02-10T07:33:18.064Z,10
2018-02-10T07:34:17.743Z,10
2018-02-10T07:35:18.339Z,15
2018-02-10T07:36:18.195Z,15
2018-02-10T07:37:18.421Z,15
2018-02-10T07:38:18.151Z,15
2018-02-10T07:39:18.320Z,15
2018-02-10T07:40:17.778Z,15
2018-02-10T07:41:18.397Z,15
2018-02-10T07:42:17.809Z,20
2018-02-10T07:43:18.399Z,15
2018-02-10T07:44:18.262Z,20
2018-02-10T07:45:18.641Z,20
2018-02-10T07:46:19.044Z,20
2018-02-10T07:47:18.681Z,25
2018-02-10T07:48:19.085Z,25
2018-02-10T07:49:19.504Z,25
2018-02-10T07:50:20.371Z,25
2018-02-10T07:51:19.674Z,25
2018-02-10T07:52:19.434Z,25
2018-02-10T07:53:20.259Z,25
2018-02-10T07:54:20.243Z,25
2018-02-10T07:55:20.194Z,25
2018-02-10T07:56:20.322Z,25
2018-02-10T07:57:21.366Z,25
2018-02-10T07:58:20.497Z,25
2018-02-10T07:59:21.339Z,25
2018-02-10T08:00:21.182Z,25
2018-02-10T08:01:21.622Z,25
2018-02-10T08:02:21.431Z,25
2018-02-10T08:03:21.299Z,25
2018-02-10T08:04:21.681Z,25
2018-02-10T08:05:21.941Z,30
2018-02-10T08:06:22.078Z,30
2018-02-10T08:07:22.538Z,30
2018-02-10T08:08:22.432Z,30
2018-02-10T08:09:22.712Z,30
2018-02-10T08:10:22.561Z,30
2018-02-10T08:11:23.223Z,30
2018-02-10T08:12:23.294Z,35
2018-02-10T08:13:22.997Z,35
2018-02-10T08:14:23.415Z,40
2018-02-10T08:15:22.672Z,40
2018-02-10T08:16:23.096Z,40
2018-02-10T08:17:22.778Z,40
2018-02-10T08:18:22.996Z,45
2018-02-10T08:19:23.035Z,45
2018-02-10T08:20:23.875Z,45
2018-02-10T08:21:23.854Z,50
2018-02-10T08:22:23.666Z,50
2018-02-10T08:23:24.269Z,50
2018-02-10T08:24:24.052Z,55
2018-02-10T08:25:24.701Z,55
2018-02-10T08:26:24.270Z,60
2018-02-10T08:27:23.983Z,65
2018-02-10T08:28:24.766Z,70
2018-02-10T08:29:24.939Z,70
2018-02-10T08:30:25.235Z,70
2018-02-10T08:31:25.602Z,70
2018-02-10T08:32:25.366Z,70
2018-02-10T08:33:25.024Z,70
2018-02-10T08:34:25.802Z,70
2018-02-10T08:35:25.950Z,70
2018-02-10T08:36:26.259Z,65
2018-02-10T08:37:26.023Z,65
2018-02-10T08:38:28.082Z,65
2018-02-10T08:39:26.734Z,60
2018-02-10T08:40:26.641Z,55
2018-02-10T08:41:27.001Z,50
2018-02-10T08:42:26.829Z,50
2018-02-10T08:43:26.850Z,50
2018-02-10T08:44:26.706Z,50
2018-02-10T08:45:27.434Z,50
2018-02-10T08:46:27.003Z,50
2018-02-10T08:47:27.359Z,50
2018-02-10T08:48:27.193Z,50
2018-02-10T08:49:26.974Z,50
2018-02-10T08:50:27.240Z,50
2018-02-10T08:51:27.869Z,55
2018-02-10T08:52:27.370Z,60
2018-02-10T08:53:27.420Z,60
2018-02-10T08:54:27.254Z,60
2018-02-10T08:55:27.882Z,60
2018-02-10T08:56:27.748Z,65
2018-02-10T08:57:28.332Z,65
2018-02-10T08:58:28.450Z,65
2018-02-10T08:59:29.179Z,65
2018-02-10T09:00:28.417Z,60
2018-02-10T09:01:28.398Z,60
2018-02-10T09:02:28.393Z,60
2018-02-10T09:03:28.927Z,60
2018-02-10T09:04:29.307Z,65
2018-02-10T09:05:29.957Z,70
2018-02-10T09:06:29.699Z,70
2018-02-10T09:07:29.804Z,70
2018-02-10T09:08:30.214Z,65
2018-02-10T09:09:30.629Z,65
2018-02-10T09:10:31.501Z,60
2018-02-10T09:11:30.663Z,60
2018-02-10T09:12:30.910Z,60
2018-02-10T09:13:31.076Z,60
2018-02-10T09:14:31.676Z,55
2018-02-10T09:15:31.460Z,55
2018-02-10T09:16:31.569Z,55
2018-02-10T09:17:32.643Z,60
2018-02-10T09:18:32.138Z,60
2018-02-10T09:19:31.935Z,60
2018-02-10T09:20:32.178Z,55
2018-02-10T09:21:32.186Z,55
2018-02-10T09:22:32.110Z,60
2018-02-10T09:23:31.664Z,60
2018-02-10T09:24:32.615Z,65
2018-02-10T09:25:32.726Z,65
2018-02-10T09:26:32.493Z,65
2018-02-10T09:27:33.041Z,70
2018-02-10T09:28:33.691Z,70
2018-02-10T09:29:33.457Z,70
2018-02-10T09:30:33.815Z,70
2018-02-10T09:31:35.323Z,70
2018-02-10T09:32:34.113Z,70
2018-02-10T09:33:34.313Z,75
2018-02-10T09:34:34.040Z,70
2018-02-10T09:35:34.822Z,70
2018-02-10T09:36:34.414Z,70
2018-02-10T09:37:34.985Z,75
2018-02-10T09:38:34.465Z,75
2018-02-10T09:39:34.429Z,80
2018-02-10T09:40:34.541Z,80
2018-02-10T09:41:34.524Z,80
2018-02-10T09:42:34.696Z,75
2018-02-10T09:43:34.468Z,75
2018-02-10T09:44:35.253Z,80
2018-02-10T09:45:34.821Z,80
2018-02-10T09:46:34.566Z,80
2018-02-10T09:47:34.838Z,75
2018-02-10T09:48:35.271Z,75
2018-02-10T09:49:35.594Z,75
2018-02-10T09:50:35.794Z,75
2018-02-10T09:51:35.417Z,75
2018-02-10T09:52:35.751Z,80
2018-02-10T09:53:35.459Z,80
2018-02-10T09:54:35.641Z,80
2018-02-10T09:55:35.699Z,80
2018-02-10T09:56:36.346Z,80
2018-02-10T09:57:36.201Z,80
2018-02-10T09:58:36.247Z,85
2018-02-10T09:59:36.022Z,85
2018-02-10T10:00:36.030Z,85
2018-02-10T10:01:35.537Z,85
2018-02-10T10:02:36.183Z,90
2018-02-10T10:03:36.562Z,95
2018-02-10T10:04:36.748Z,100
2018-02-10T10:05:37.116Z,100
2018-02-10T10:06:37.234Z,100
2018-02-10T10:07:38.259Z,95
2018-02-10T10:08:37.908Z,95
2018-02-10T10:09:37.941Z,90
2018-02-10T10:10:37.600Z,90
2018-02-10T10:11:38.303Z,95
2018-02-10T10:12:37.259Z,90
2018-02-10T10:13:38.009Z,90
2018-02-10T10:14:37.882Z,90
2018-02-10T10:15:38.193Z,85
2018-02-10T10:16:38.238Z,90
2018-02-10T10:17:38.128Z,95
2018-02-10T10:18:38.392Z,95
2018-02-10T10:19:39.079Z,95
2018-02-10T10:20:38.567Z,95
2018-02-10T10:21:38.833Z,95
2018-02-10T10:22:38.685Z,100
2018-02-10T10:23:39.490Z,105
2018-02-10T10:24:39.254Z,105
2018-02-10T10:25:39.908Z,105
2018-02-10T10:26:40.304Z,105
2018-02-10T10:27:40.281Z,105
2018-02-10T10:28:40.296Z,110
2018-02-10T10:29:40.415Z,110
2018-02-10T10:30:40.484Z,110
2018-02-10T10:31:40.898Z,110
2018-02-10T10:32:40.773Z,105
2018-02-10T10:33:40.791Z,105
2018-02-10T10:34:41.115Z,105
2018-02-10T10:35:41.771Z,110
2018-02-10T10:36:41.775Z,115
2018-02-10T10:37:41.090Z,115
2018-02-10T10:38:41.754Z,120
2018-02-10T10:39:41.352Z,125
2018-02-10T10:40:41.886Z,130
2018-02-10T10:41:42.284Z,130
2018-02-10T10:42:42.167Z,125
2018-02-10T10:43:42.427Z,125
2018-02-10T10:44:42.797Z,130
2018-02-10T10:45:42.934Z,135
2018-02-10T10:46:42.943Z,145
2018-02-10T10:47:43.019Z,150
2018-02-10T10:48:42.768Z,155
2018-02-10T10:49:42.739Z,160
2018-02-10T10:50:43.457Z,170
2018-02-10T10:51:43.325Z,180
2018-02-10T10:52:44.166Z,190
2018-02-10T10:53:43.417Z,200
2018-02-10T10:54:43.655Z,205
2018-02-10T10:55:44.034Z,210
2018-02-10T10:56:44.433Z,220
2018-02-10T10:57:44.844Z,230
2018-02-10T10:58:44.831Z,245
2018-02-10T10:59:45.274Z,255
2018-02-10T11:00:45.966Z,255
2018-02-10T11:01:45.448Z,255
2018-02-10T11:02:45.391Z,250
2018-02-10T11:03:46.123Z,255
2018-02-10T11:04:45.519Z,260
2018-02-10T11:05:45.312Z,270
2018-02-10T11:06:44.918Z,275
2018-02-10T11:07:45.198Z,285
2018-02-10T11:08:46.072Z,295
2018-02-10T11:09:45.946Z,305
2018-02-10T11:10:45.403Z,310
2018-02-10T11:11:45.767Z,310
2018-02-10T11:12:45.564Z,300
2018-02-10T11:13:46.258Z,300
2018-02-10T11:14:46.028Z,305
2018-02-10T11:15:45.894Z,310
2018-02-10T11:16:45.999Z,300
2018-02-10T11:17:46.521Z,305
2018-02-10T11:18:46.126Z,335
2018-02-10T11:19:46.390Z,345
2018-02-10T11:20:46.712Z,370
2018-02-10T11:21:46.905Z,360
2018-02-10T11:22:46.550Z,370
2018-02-10T11:23:47.390Z,380
2018-02-10T11:24:47.033Z,365
2018-02-10T11:25:47.528Z,365
2018-02-10T11:26:47.466Z,375
2018-02-10T11:27:48.100Z,370
2018-02-10T11:28:47.727Z,360
2018-02-10T11:29:47.932Z,365
2018-02-10T11:30:48.719Z,380
2018-02-10T11:31:48.740Z,370
2018-02-10T11:32:48.378Z,400
2018-02-10T11:33:49.006Z,365
2018-02-10T11:34:49.368Z,375
2018-02-10T11:35:49.155Z,360
2018-02-10T11:36:49.294Z,355
2018-02-10T11:37:49.725Z,365
2018-02-10T11:38:50.366Z,330
2018-02-10T11:39:50.409Z,315
2018-02-10T11:40:49.983Z,300
2018-02-10T11:41:50.519Z,305
2018-02-10T11:42:50.747Z,305
2018-02-10T11:43:50.831Z,300
2018-02-10T11:44:50.334Z,295
2018-02-10T11:45:51.023Z,300
2018-02-10T11:46:51.033Z,305
2018-02-10T11:47:50.561Z,300
2018-02-10T11:48:51.043Z,300
2018-02-10T11:49:51.276Z,305
2018-02-10T11:50:51.313Z,300
2018-02-10T11:51:51.022Z,295
2018-02-10T11:52:51.537Z,280
2018-02-10T11:53:51.495Z,280
2018-02-10T11:54:51.918Z,280
2018-02-10T11:55:52.581Z,270
2018-02-10T11:56:53.165Z,265
2018-02-10T11:57:52.526Z,270
2018-02-10T11:58:53.118Z,285
2018-02-10T11:59:53.012Z,270
2018-02-10T12:00:53.042Z,255
2018-02-10T12:01:52.840Z,260
2018-02-10T12:02:53.600Z,250
2018-02-10T12:03:53.468Z,245
2018-02-10T12:04:53.098Z,240
2018-02-10T12:05:53.964Z,240
2018-02-10T12:06:54.065Z,240
2018-02-10T12:07:54.235Z,220
2018-02-10T12:08:54.525Z,235
2018-02-10T12:09:54.754Z,240
2018-02-10T12:10:54.582Z,255
2018-02-10T12:11:54.745Z,270
2018-02-10T12:12:55.192Z,280
2018-02-10T12:13:55.170Z,290
2018-02-10T12:14:55.350Z,285
2018-02-10T12:15:55.103Z,275
2018-02-10T12:16:55.616Z,280
2018-02-10T12:17:55.615Z,290
2018-02-10T12:18:55.496Z,300
2018-02-10T12:19:55.463Z,305
2018-02-10T12:20:55.704Z,320
2018-02-10T12:21:56.355Z,325
2018-02-10T12:22:56.163Z,315
2018-02-10T12:23:56.400Z,290
2018-02-10T12:24:56.777Z,275
2018-02-10T12:25:57.271Z,270
2018-02-10T12:26:57.174Z,250
2018-02-10T12:27:57.065Z,235
2018-02-10T12:28:57.577Z,220
2018-02-10T12:29:58.261Z,230
2018-02-10T12:30:58.035Z,245
2018-02-10T12:31:58.391Z,250
2018-02-10T12:32:58.141Z,260
2018-02-10T12:33:58.271Z,250
2018-02-10T12:34:58.379Z,255
2018-02-10T12:35:58.467Z,260
2018-02-10T12:36:58.908Z,275
2018-02-10T12:37:59.697Z,285
2018-02-10T12:39:01.415Z,285
2018-02-10T12:40:01.167Z,260
2018-02-10T12:41:01.295Z,250
2018-02-10T12:42:01.138Z,225
2018-02-10T12:43:00.346Z,225
2018-02-10T12:44:01.019Z,240
2018-02-10T12:44:59.877Z,275
2018-02-10T12:46:00.507Z,270
2018-02-10T12:46:59.699Z,240
2018-02-10T12:47:59.895Z,210
2018-02-10T12:48:59.581Z,205
2018-02-10T12:49:59.956Z,205
2018-02-10T12:50:59.750Z,210
2018-02-10T12:52:00.506Z,215
2018-02-10T12:52:59.810Z,225
2018-02-10T12:54:00.514Z,235
2018-02-10T12:55:00.379Z,230
2018-02-10T12:56:00.750Z,220
2018-02-10T12:57:00.961Z,215
2018-02-10T12:58:00.786Z,220
2018-02-10T12:59:00.588Z,225
2018-02-10T13:01:01.083Z,225
2018-02-10T13:02:00.449Z,205
2018-02-10T13:03:01.283Z,175
2018-02-10T13:04:01.806Z,155
2018-02-10T13:05:01.719Z,145
2018-02-10T13:06:01.671Z,135
2018-02-10T13:07:02.212Z,135
2018-02-10T13:08:02.120Z,140
2018-02-10T13:09:02.354Z,155
2018-02-10T13:10:02.927Z,170
2018-02-10T13:11:02.814Z,180
2018-02-10T13:12:03.360Z,175
2018-02-10T13:13:02.598Z,175
2018-02-10T13:14:02.900Z,180
2018-02-10T13:15:02.868Z,185
2018-02-10T13:16:03.313Z,180
2018-02-10T13:17:04.435Z,175
2018-02-10T13:18:03.103Z,180
2018-02-10T13:19:03.843Z,175
2018-02-10T13:20:04.031Z,175
2018-02-10T13:21:04.030Z,180
2018-02-10T13:22:03.779Z,180
2018-02-10T13:23:04.926Z,180
2018-02-10T13:24:04.713Z,180
2018-02-10T13:25:04.932Z,180
2018-02-10T13:26:05.407Z,180
2018-02-10T13:27:05.017Z,175
2018-02-10T13:28:05.669Z,165
2018-02-10T13:29:05.499Z,165
2018-02-10T13:30:06.165Z,165
2018-02-10T13:31:06.063Z,165
2018-02-10T13:32:06.491Z,165
2018-02-10T13:33:06.753Z,155
2018-02-10T13:34:06.513Z,150
2018-02-10T13:35:06.782Z,150
2018-02-10T13:36:05.608Z,155
2018-02-10T13:37:06.312Z,160
2018-02-10T13:38:07.080Z,165
2018-02-10T13:39:06.524Z,175
2018-02-10T13:40:06.844Z,185
2018-02-10T13:41:07.220Z,185
2018-02-10T13:42:06.998Z,165
2018-02-10T13:43:07.321Z,155
2018-02-10T13:44:07.138Z,160
2018-02-10T13:45:07.037Z,165
2018-02-10T13:46:07.163Z,160
2018-02-10T13:47:07.724Z,155
2018-02-10T13:48:07.617Z,150
2018-02-10T13:49:08.194Z,155
2018-02-10T13:50:08.339Z,165
2018-02-10T13:51:09.239Z,160
2018-02-10T13:52:08.882Z,150
2018-02-10T13:53:08.810Z,150
2018-02-10T13:54:08.723Z,155
2018-02-10T13:55:08.960Z,160
2018-02-10T13:56:09.905Z,165
2018-02-10T13:57:09.159Z,165
2018-02-10T13:58:09.101Z,165
2018-02-10T13:59:09.063Z,165
2018-02-10T14:01:09.421Z,175
2018-02-10T14:02:09.611Z,180
2018-02-10T14:03:10.427Z,175
2018-02-10T14:04:10.237Z,170
2018-02-10T14:05:11.144Z,160
2018-02-10T14:06:10.454Z,150
2018-02-10T14:07:10.846Z,140
2018-02-10T14:08:10.486Z,140
2018-02-10T14:09:11.148Z,130
2018-02-10T14:10:11.381Z,125
2018-02-10T14:11:10.752Z,120
2018-02-10T14:12:10.664Z,115
2018-02-10T14:13:10.454Z,115
2018-02-10T14:14:11.514Z,115
2018-02-10T14:15:11.943Z,115
2018-02-10T14:16:11.095Z,125
2018-02-10T14:17:10.783Z,130
2018-02-10T14:18:11.330Z,135
2018-02-10T14:19:12.199Z,140
2018-02-10T14:20:12.915Z,135
2018-02-10T14:21:10.970Z,135
2018-02-10T14:22:10.631Z,130
2018-02-10T14:23:10.077Z,125
2018-02-10T14:24:10.687Z,125
2018-02-10T14:25:10.426Z,120
2018-02-10T14:26:11.158Z,120
2018-02-10T14:27:11.860Z,115
2018-02-10T14:28:11.162Z,110